sensor_id;sensor_type;location;lat;lon;timestamp;pressure;altitude;pressure_sealevel;temperature;humidity
15487;BME280;7845;53.698;10.078;2023-04-04T00:00:02;102986.03;;;2.27;100.00
15487;BME280;7845;53.698;10.078;2023-04-04T00:02:27;102985.41;;;2.31;100.00
15487;BME280;7845;53.698;10.078;2023-04-04T00:04:53;102984.16;;;2.24;100.00
15487;BME280;7845;53.698;10.078;2023-04-04T00:07:18;102982.56;;;2.26;100.00
15487;BME280;7845;53.698;10.078;2023-04-04T00:09:45;102982.72;;;2.14;100.00
15487;BME280;7845;53.698;10.078;2023-04-04T00:12:10;102977.66;;;2.16;100.00
15487;BME280;7845;53.698;10.078;2023-04-04T00:14:35;102975.56;;;2.23;100.00
15487;BME280;7845;53.698;10.078;2023-04-04T00:17:01;102977.97;;;2.35;100.00
15487;BME280;7845;53.698;10.078;2023-04-04T00:19:29;102972.47;;;2.29;100.00
15487;BME280;7845;53.698;10.078;2023-04-04T00:21:59;102972.91;;;2.37;100.00
15487;BME280;7845;53.698;10.078;2023-04-04T00:24:24;102962.53;;;2.35;100.00
15487;BME280;7845;53.698;10.078;2023-04-04T00:27:03;102958.53;;;2.40;100.00
15487;BME280;7845;53.698;10.078;2023-04-04T00:29:28;102955.94;;;2.40;100.00
15487;BME280;7845;53.698;10.078;2023-04-04T00:31:56;102946.78;;;2.31;100.00
15487;BME280;7845;53.698;10.078;2023-04-04T00:34:23;102946.16;;;2.35;100.00
15487;BME280;7845;53.698;10.078;2023-04-04T00:36:48;102945.19;;;2.33;100.00
15487;BME280;7845;53.698;10.078;2023-04-04T00:39:14;102949.53;;;2.34;100.00
15487;BME280;7845;53.698;10.078;2023-04-04T00:41:42;102950.97;;;2.43;100.00
15487;BME280;7845;53.698;10.078;2023-04-04T00:44:08;102944.16;;;2.44;100.00
15487;BME280;7845;53.698;10.078;2023-04-04T00:46:36;102953.66;;;2.45;100.00
15487;BME280;7845;53.698;10.078;2023-04-04T00:49:02;102950.56;;;2.50;100.00
15487;BME280;7845;53.698;10.078;2023-04-04T00:51:27;102945.75;;;2.42;100.00
15487;BME280;7845;53.698;10.078;2023-04-04T00:53:52;102944.03;;;2.42;100.00
15487;BME280;7845;53.698;10.078;2023-04-04T00:56:18;102941.50;;;2.14;100.00
15487;BME280;7845;53.698;10.078;2023-04-04T00:58:45;102939.19;;;2.19;100.00
15487;BME280;7845;53.698;10.078;2023-04-04T01:01:11;102941.16;;;2.23;100.00
15487;BME280;7845;53.698;10.078;2023-04-04T01:03:36;102933.16;;;2.18;100.00
15487;BME280;7845;53.698;10.078;2023-04-04T01:06:04;102930.94;;;2.24;100.00
15487;BME280;7845;53.698;10.078;2023-04-04T01:08:31;102925.72;;;2.23;100.00
15487;BME280;7845;53.698;10.078;2023-04-04T01:11:02;102926.97;;;2.30;100.00
15487;BME280;7845;53.698;10.078;2023-04-04T01:13:28;102930.00;;;2.37;100.00
15487;BME280;7845;53.698;10.078;2023-04-04T01:15:55;102927.16;;;2.33;100.00
15487;BME280;7845;53.698;10.078;2023-04-04T01:18:21;102917.31;;;2.40;100.00
15487;BME280;7845;53.698;10.078;2023-04-04T01:21:00;102918.19;;;2.41;100.00
15487;BME280;7845;53.698;10.078;2023-04-04T01:23:48;102914.84;;;2.42;100.00
15487;BME280;7845;53.698;10.078;2023-04-04T01:26:14;102902.03;;;2.43;100.00
15487;BME280;7845;53.698;10.078;2023-04-04T01:28:39;102900.88;;;2.38;100.00
15487;BME280;7845;53.698;10.078;2023-04-04T01:31:07;102904.66;;;2.30;100.00
15487;BME280;7845;53.698;10.078;2023-04-04T01:33:45;102900.41;;;2.31;100.00
15487;BME280;7845;53.698;10.078;2023-04-04T01:39:18;102894.72;;;2.36;100.00
15487;BME280;7845;53.698;10.078;2023-04-04T01:41:47;102903.44;;;2.38;100.00
15487;BME280;7845;53.698;10.078;2023-04-04T01:44:15;102895.44;;;2.34;100.00
15487;BME280;7845;53.698;10.078;2023-04-04T01:46:41;102892.97;;;2.35;100.00
15487;BME280;7845;53.698;10.078;2023-04-04T01:49:07;102890.72;;;2.27;100.00
15487;BME280;7845;53.698;10.078;2023-04-04T01:51:35;102883.97;;;2.29;100.00
15487;BME280;7845;53.698;10.078;2023-04-04T01:54:07;102890.28;;;2.34;100.00
15487;BME280;7845;53.698;10.078;2023-04-04T01:56:33;102886.63;;;2.30;100.00
15487;BME280;7845;53.698;10.078;2023-04-04T01:58:59;102890.28;;;2.34;100.00
15487;BME280;7845;53.698;10.078;2023-04-04T02:01:25;102879.69;;;2.14;100.00
15487;BME280;7845;53.698;10.078;2023-04-04T02:03:52;102878.09;;;2.16;100.00
15487;BME280;7845;53.698;10.078;2023-04-04T02:06:18;102886.00;;;2.19;100.00
15487;BME280;7845;53.698;10.078;2023-04-04T02:08:43;102886.09;;;2.21;100.00
15487;BME280;7845;53.698;10.078;2023-04-04T02:11:11;102890.19;;;2.17;100.00
15487;BME280;7845;53.698;10.078;2023-04-04T02:13:38;102874.16;;;2.08;100.00
15487;BME280;7845;53.698;10.078;2023-04-04T02:16:08;102879.25;;;2.21;100.00
15487;BME280;7845;53.698;10.078;2023-04-04T02:18:37;102880.31;;;2.25;100.00
15487;BME280;7845;53.698;10.078;2023-04-04T02:21:02;102878.38;;;2.21;100.00
15487;BME280;7845;53.698;10.078;2023-04-04T02:23:28;102883.06;;;2.28;100.00
15487;BME280;7845;53.698;10.078;2023-04-04T02:25:53;102878.28;;;2.19;100.00
15487;BME280;7845;53.698;10.078;2023-04-04T02:28:19;102877.00;;;2.13;100.00
15487;BME280;7845;53.698;10.078;2023-04-04T02:30:44;102879.75;;;2.16;100.00
15487;BME280;7845;53.698;10.078;2023-04-04T02:33:11;102879.88;;;2.17;100.00
15487;BME280;7845;53.698;10.078;2023-04-04T02:35:37;102873.50;;;1.98;100.00
15487;BME280;7845;53.698;10.078;2023-04-04T02:38:03;102880.09;;;2.07;100.00
15487;BME280;7845;53.698;10.078;2023-04-04T02:40:28;102870.03;;;1.97;100.00
15487;BME280;7845;53.698;10.078;2023-04-04T02:42:53;102870.50;;;2.05;100.00
15487;BME280;7845;53.698;10.078;2023-04-04T02:45:19;102873.69;;;2.01;100.00
15487;BME280;7845;53.698;10.078;2023-04-04T02:47:51;102879.88;;;2.17;100.00
15487;BME280;7845;53.698;10.078;2023-04-04T02:50:17;102872.78;;;2.28;100.00
15487;BME280;7845;53.698;10.078;2023-04-04T02:52:44;102871.25;;;2.17;100.00
15487;BME280;7845;53.698;10.078;2023-04-04T02:55:09;102874.09;;;2.21;100.00
15487;BME280;7845;53.698;10.078;2023-04-04T02:57:38;102870.69;;;2.08;100.00
15487;BME280;7845;53.698;10.078;2023-04-04T03:00:06;102876.41;;;2.17;100.00
15487;BME280;7845;53.698;10.078;2023-04-04T03:02:31;102876.78;;;2.23;100.00
15487;BME280;7845;53.698;10.078;2023-04-04T03:04:57;102877.91;;;2.28;100.00
15487;BME280;7845;53.698;10.078;2023-04-04T03:07:23;102877.56;;;2.22;100.00
15487;BME280;7845;53.698;10.078;2023-04-04T03:09:50;102874.56;;;2.29;100.00
15487;BME280;7845;53.698;10.078;2023-04-04T03:12:19;102878.22;;;2.33;100.00
15487;BME280;7845;53.698;10.078;2023-04-04T03:14:44;102876.69;;;2.36;100.00
15487;BME280;7845;53.698;10.078;2023-04-04T03:17:10;102871.53;;;2.36;100.00
15487;BME280;7845;53.698;10.078;2023-04-04T03:19:38;102881.06;;;2.52;100.00
15487;BME280;7845;53.698;10.078;2023-04-04T03:22:04;102880.09;;;2.50;100.00
15487;BME280;7845;53.698;10.078;2023-04-04T03:24:29;102865.94;;;2.43;100.00
15487;BME280;7845;53.698;10.078;2023-04-04T03:26:55;102869.59;;;2.47;100.00
15487;BME280;7845;53.698;10.078;2023-04-04T03:29:20;102865.69;;;2.39;100.00
15487;BME280;7845;53.698;10.078;2023-04-04T03:31:45;102860.44;;;2.52;100.00
15487;BME280;7845;53.698;10.078;2023-04-04T03:34:11;102857.31;;;2.57;100.00
15487;BME280;7845;53.698;10.078;2023-04-04T03:36:36;102863.38;;;2.58;100.00
15487;BME280;7845;53.698;10.078;2023-04-04T03:39:01;102851.72;;;2.64;100.00
15487;BME280;7845;53.698;10.078;2023-04-04T03:41:28;102849.94;;;2.63;100.00
15487;BME280;7845;53.698;10.078;2023-04-04T03:43:56;102845.25;;;2.71;100.00
15487;BME280;7845;53.698;10.078;2023-04-04T03:46:22;102852.53;;;2.49;100.00
15487;BME280;7845;53.698;10.078;2023-04-04T03:48:50;102860.00;;;2.44;100.00
15487;BME280;7845;53.698;10.078;2023-04-04T03:51:25;102849.41;;;2.69;100.00
15487;BME280;7845;53.698;10.078;2023-04-04T03:53:52;102851.28;;;2.71;100.00
15487;BME280;7845;53.698;10.078;2023-04-04T03:56:17;102840.63;;;2.65;100.00
15487;BME280;7845;53.698;10.078;2023-04-04T03:58:44;102843.22;;;2.65;100.00
15487;BME280;7845;53.698;10.078;2023-04-04T04:01:11;102838.91;;;2.66;100.00
15487;BME280;7845;53.698;10.078;2023-04-04T04:03:37;102837.41;;;2.69;100.00
15487;BME280;7845;53.698;10.078;2023-04-04T04:06:03;102839.81;;;2.66;100.00
15487;BME280;7845;53.698;10.078;2023-04-04T04:08:28;102841.25;;;2.61;100.00
15487;BME280;7845;53.698;10.078;2023-04-04T04:10:55;102847.13;;;2.44;100.00
15487;BME280;7845;53.698;10.078;2023-04-04T04:13:20;102844.84;;;2.06;100.00
15487;BME280;7845;53.698;10.078;2023-04-04T04:15:46;102854.13;;;2.17;100.00
15487;BME280;7845;53.698;10.078;2023-04-04T04:18:11;102859.78;;;2.12;100.00
15487;BME280;7845;53.698;10.078;2023-04-04T04:20:37;102858.91;;;2.26;100.00
15487;BME280;7845;53.698;10.078;2023-04-04T04:23:02;102851.53;;;2.17;100.00
15487;BME280;7845;53.698;10.078;2023-04-04T04:25:28;102855.81;;;2.32;100.00
15487;BME280;7845;53.698;10.078;2023-04-04T04:27:55;102849.06;;;2.34;100.00
15487;BME280;7845;53.698;10.078;2023-04-04T04:30:21;102851.44;;;2.45;100.00
15487;BME280;7845;53.698;10.078;2023-04-04T04:32:50;102846.84;;;2.40;100.00
15487;BME280;7845;53.698;10.078;2023-04-04T04:35:15;102853.94;;;2.29;100.00
15487;BME280;7845;53.698;10.078;2023-04-04T04:37:41;102847.13;;;2.44;100.00
15487;BME280;7845;53.698;10.078;2023-04-04T04:40:07;102843.47;;;2.41;100.00
15487;BME280;7845;53.698;10.078;2023-04-04T04:42:33;102849.41;;;2.54;100.00
15487;BME280;7845;53.698;10.078;2023-04-04T04:44:58;102851.44;;;2.60;100.00
15487;BME280;7845;53.698;10.078;2023-04-04T04:47:23;102849.75;;;2.60;100.00
15487;BME280;7845;53.698;10.078;2023-04-04T04:49:49;102854.13;;;2.47;100.00
15487;BME280;7845;53.698;10.078;2023-04-04T04:52:14;102856.25;;;2.39;100.00
15487;BME280;7845;53.698;10.078;2023-04-04T04:54:40;102852.00;;;2.40;100.00
15487;BME280;7845;53.698;10.078;2023-04-04T04:57:05;102858.38;;;2.32;100.00
15487;BME280;7845;53.698;10.078;2023-04-04T04:59:31;102860.81;;;2.01;100.00
15487;BME280;7845;53.698;10.078;2023-04-04T05:01:56;102865.56;;;2.22;100.00
15487;BME280;7845;53.698;10.078;2023-04-04T05:04:22;102863.28;;;2.42;100.00
15487;BME280;7845;53.698;10.078;2023-04-04T05:06:49;102861.06;;;2.48;100.00
15487;BME280;7845;53.698;10.078;2023-04-04T05:09:15;102862.22;;;2.53;100.00
15487;BME280;7845;53.698;10.078;2023-04-04T05:11:40;102859.28;;;2.61;100.00
15487;BME280;7845;53.698;10.078;2023-04-04T05:14:06;102841.00;;;3.02;100.00
15487;BME280;7845;53.698;10.078;2023-04-04T05:16:31;102836.16;;;2.92;100.00
15487;BME280;7845;53.698;10.078;2023-04-04T05:18:57;102835.19;;;2.75;100.00
15487;BME280;7845;53.698;10.078;2023-04-04T05:21:23;102846.34;;;2.91;100.00
15487;BME280;7845;53.698;10.078;2023-04-04T05:23:48;102837.53;;;3.02;100.00
15487;BME280;7845;53.698;10.078;2023-04-04T05:26:14;102828.91;;;3.32;100.00
15487;BME280;7845;53.698;10.078;2023-04-04T05:28:39;102820.31;;;3.31;100.00
15487;BME280;7845;53.698;10.078;2023-04-04T05:31:05;102823.56;;;3.29;100.00
15487;BME280;7845;53.698;10.078;2023-04-04T05:33:30;102814.66;;;3.08;100.00
15487;BME280;7845;53.698;10.078;2023-04-04T05:35:56;102823.63;;;3.14;100.00
15487;BME280;7845;53.698;10.078;2023-04-04T05:38:23;102831.25;;;3.27;100.00
15487;BME280;7845;53.698;10.078;2023-04-04T05:40:51;102824.66;;;3.49;100.00
15487;BME280;7845;53.698;10.078;2023-04-04T05:43:17;102815.66;;;3.73;100.00
15487;BME280;7845;53.698;10.078;2023-04-04T05:45:43;102817.00;;;3.82;100.00
15487;BME280;7845;53.698;10.078;2023-04-04T05:48:08;102814.16;;;4.10;100.00
15487;BME280;7845;53.698;10.078;2023-04-04T05:50:34;102813.66;;;4.17;100.00
15487;BME280;7845;53.698;10.078;2023-04-04T05:53:00;102810.88;;;4.30;100.00
15487;BME280;7845;53.698;10.078;2023-04-04T05:55:25;102808.13;;;4.27;100.00
15487;BME280;7845;53.698;10.078;2023-04-04T05:57:51;102812.00;;;4.35;100.00
15487;BME280;7845;53.698;10.078;2023-04-04T06:00:17;102802.94;;;4.43;100.00
15487;BME280;7845;53.698;10.078;2023-04-04T06:02:43;102806.00;;;4.36;100.00
15487;BME280;7845;53.698;10.078;2023-04-04T06:05:11;102810.50;;;4.23;100.00
15487;BME280;7845;53.698;10.078;2023-04-04T06:07:37;102809.13;;;4.13;100.00
15487;BME280;7845;53.698;10.078;2023-04-04T06:10:03;102808.88;;;4.25;100.00
15487;BME280;7845;53.698;10.078;2023-04-04T06:12:30;102814.47;;;4.16;100.00
15487;BME280;7845;53.698;10.078;2023-04-04T06:14:55;102809.13;;;4.13;100.00
15487;BME280;7845;53.698;10.078;2023-04-04T06:17:21;102814.25;;;4.12;100.00
15487;BME280;7845;53.698;10.078;2023-04-04T06:19:46;102815.34;;;4.17;100.00
15487;BME280;7845;53.698;10.078;2023-04-04T06:22:11;102821.16;;;4.29;100.00
15487;BME280;7845;53.698;10.078;2023-04-04T06:24:37;102824.91;;;4.18;100.00
15487;BME280;7845;53.698;10.078;2023-04-04T06:27:04;102821.31;;;4.32;100.00
15487;BME280;7845;53.698;10.078;2023-04-04T06:29:29;102816.81;;;4.63;100.00
15487;BME280;7845;53.698;10.078;2023-04-04T06:31:55;102811.00;;;4.67;100.00
15487;BME280;7845;53.698;10.078;2023-04-04T06:34:22;102807.03;;;4.74;100.00
15487;BME280;7845;53.698;10.078;2023-04-04T06:36:47;102802.03;;;4.96;100.00
15487;BME280;7845;53.698;10.078;2023-04-04T06:39:12;102803.75;;;5.13;100.00
15487;BME280;7845;53.698;10.078;2023-04-04T06:41:38;102794.25;;;5.31;100.00
15487;BME280;7845;53.698;10.078;2023-04-04T06:44:03;102787.03;;;5.43;100.00
15487;BME280;7845;53.698;10.078;2023-04-04T06:46:29;102787.97;;;5.65;100.00
15487;BME280;7845;53.698;10.078;2023-04-04T06:48:58;102787.31;;;5.69;100.00
15487;BME280;7845;53.698;10.078;2023-04-04T06:51:25;102785.59;;;5.69;100.00
15487;BME280;7845;53.698;10.078;2023-04-04T06:53:51;102780.47;;;5.88;100.00
15487;BME280;7845;53.698;10.078;2023-04-04T06:56:18;102776.41;;;5.95;100.00
15487;BME280;7845;53.698;10.078;2023-04-04T06:58:43;102774.78;;;5.97;100.00
15487;BME280;7845;53.698;10.078;2023-04-04T07:01:09;102758.34;;;5.96;100.00
15487;BME280;7845;53.698;10.078;2023-04-04T07:03:35;102773.41;;;5.86;100.00
15487;BME280;7845;53.698;10.078;2023-04-04T07:06:02;102761.91;;;6.19;100.00
15487;BME280;7845;53.698;10.078;2023-04-04T07:08:28;102763.81;;;6.23;100.00
15487;BME280;7845;53.698;10.078;2023-04-04T07:10:57;102757.16;;;6.09;100.00
15487;BME280;7845;53.698;10.078;2023-04-04T07:13:22;102755.94;;;6.22;100.00
15487;BME280;7845;53.698;10.078;2023-04-04T07:15:48;102749.94;;;6.43;100.00
15487;BME280;7845;53.698;10.078;2023-04-04T07:18:15;102741.91;;;6.58;100.00
15487;BME280;7845;53.698;10.078;2023-04-04T07:20:41;102730.34;;;6.72;100.00
15487;BME280;7845;53.698;10.078;2023-04-04T07:23:08;102727.00;;;6.75;100.00
15487;BME280;7845;53.698;10.078;2023-04-04T07:25:36;102727.19;;;6.57;100.00
15487;BME280;7845;53.698;10.078;2023-04-04T07:28:01;102727.19;;;6.57;100.00
15487;BME280;7845;53.698;10.078;2023-04-04T07:30:27;102725.16;;;6.50;100.00
15487;BME280;7845;53.698;10.078;2023-04-04T07:33:01;102728.81;;;6.55;100.00
15487;BME280;7845;53.698;10.078;2023-04-04T07:35:27;102729.00;;;6.59;100.00
15487;BME280;7845;53.698;10.078;2023-04-04T07:37:53;102724.53;;;6.78;100.00
15487;BME280;7845;53.698;10.078;2023-04-04T07:40:20;102724.16;;;6.91;100.00
15487;BME280;7845;53.698;10.078;2023-04-04T07:42:46;102715.91;;;6.79;100.00
15487;BME280;7845;53.698;10.078;2023-04-04T07:45:15;102711.41;;;6.97;100.00
15487;BME280;7845;53.698;10.078;2023-04-04T07:47:42;102706.81;;;7.12;97.80
15487;BME280;7845;53.698;10.078;2023-04-04T07:50:09;102711.31;;;7.16;97.30
15487;BME280;7845;53.698;10.078;2023-04-04T07:52:34;102703.03;;;7.75;94.23
15487;BME280;7845;53.698;10.078;2023-04-04T07:55:00;102696.72;;;7.67;89.74
15487;BME280;7845;53.698;10.078;2023-04-04T07:57:27;102674.97;;;7.90;85.85
15487;BME280;7845;53.698;10.078;2023-04-04T07:59:53;102679.16;;;8.37;84.66
15487;BME280;7845;53.698;10.078;2023-04-04T08:02:18;102681.28;;;8.77;88.71
15487;BME280;7845;53.698;10.078;2023-04-04T08:04:43;102669.44;;;9.16;86.00
15487;BME280;7845;53.698;10.078;2023-04-04T08:07:09;102657.19;;;9.43;83.08
15487;BME280;7845;53.698;10.078;2023-04-04T08:09:34;102646.28;;;9.58;78.33
15487;BME280;7845;53.698;10.078;2023-04-04T08:12:01;102653.66;;;10.10;81.26
15487;BME280;7845;53.698;10.078;2023-04-04T08:14:27;102635.47;;;10.47;73.66
15487;BME280;7845;53.698;10.078;2023-04-04T08:16:52;102635.72;;;11.00;75.78
15487;BME280;7845;53.698;10.078;2023-04-04T08:19:18;102609.41;;;10.91;68.22
15487;BME280;7845;53.698;10.078;2023-04-04T08:21:44;102619.84;;;10.89;67.97
15487;BME280;7845;53.698;10.078;2023-04-04T08:24:10;102626.25;;;11.05;67.49
15487;BME280;7845;53.698;10.078;2023-04-04T08:26:36;102620.03;;;11.43;66.36
15487;BME280;7845;53.698;10.078;2023-04-04T08:29:01;102611.38;;;11.47;65.16
15487;BME280;7845;53.698;10.078;2023-04-04T08:31:26;102606.56;;;11.24;61.86
15487;BME280;7845;53.698;10.078;2023-04-04T08:33:53;102603.47;;;11.44;60.77
15487;BME280;7845;53.698;10.078;2023-04-04T08:36:19;102618.69;;;10.77;60.47
15487;BME280;7845;53.698;10.078;2023-04-04T08:38:44;102613.59;;;9.72;58.51
15487;BME280;7845;53.698;10.078;2023-04-04T08:41:11;102612.56;;;10.75;59.40
15487;BME280;7845;53.698;10.078;2023-04-04T08:43:37;102613.34;;;11.14;59.57
15487;BME280;7845;53.698;10.078;2023-04-04T08:46:06;102613.47;;;11.68;60.96
15487;BME280;7845;53.698;10.078;2023-04-04T08:48:34;102603.56;;;11.49;58.34
15487;BME280;7845;53.698;10.078;2023-04-04T08:51:02;102608.19;;;11.17;58.78
15487;BME280;7845;53.698;10.078;2023-04-04T08:53:30;102622.00;;;10.70;59.83
15487;BME280;7845;53.698;10.078;2023-04-04T08:55:58;102620.44;;;10.37;59.41
15487;BME280;7845;53.698;10.078;2023-04-04T08:58:24;102609.50;;;10.55;57.82
15487;BME280;7845;53.698;10.078;2023-04-04T09:00:52;102597.59;;;10.27;54.75
15487;BME280;7845;53.698;10.078;2023-04-04T09:03:28;102588.91;;;10.28;52.36
15487;BME280;7845;53.698;10.078;2023-04-04T09:05:57;102596.97;;;9.67;52.32
15487;BME280;7845;53.698;10.078;2023-04-04T09:08:28;102575.84;;;9.57;49.78
15487;BME280;7845;53.698;10.078;2023-04-04T09:10:53;102581.69;;;10.17;50.57
15487;BME280;7845;53.698;10.078;2023-04-04T09:13:19;102583.22;;;9.40;48.92
15487;BME280;7845;53.698;10.078;2023-04-04T09:15:48;102597.56;;;9.57;50.83
15487;BME280;7845;53.698;10.078;2023-04-04T09:18:16;102571.41;;;9.53;47.09
15487;BME280;7845;53.698;10.078;2023-04-04T09:20:43;102569.97;;;10.01;48.18
15487;BME280;7845;53.698;10.078;2023-04-04T09:23:12;102567.34;;;10.01;47.81
15487;BME280;7845;53.698;10.078;2023-04-04T09:25:44;102580.72;;;10.13;50.42
15487;BME280;7845;53.698;10.078;2023-04-04T09:28:13;102575.94;;;10.72;50.21
15487;BME280;7845;53.698;10.078;2023-04-04T09:30:39;102569.91;;;11.19;49.55
15487;BME280;7845;53.698;10.078;2023-04-04T09:33:04;102554.28;;;12.29;47.67
15487;BME280;7845;53.698;10.078;2023-04-04T09:35:35;102545.84;;;12.49;46.17
15487;BME280;7845;53.698;10.078;2023-04-04T09:38:03;102541.81;;;12.77;46.07
15487;BME280;7845;53.698;10.078;2023-04-04T09:40:29;102537.69;;;12.99;45.71
15487;BME280;7845;53.698;10.078;2023-04-04T09:43:00;102550.22;;;11.90;44.06
15487;BME280;7845;53.698;10.078;2023-04-04T09:45:29;102541.19;;;12.27;44.80
15487;BME280;7845;53.698;10.078;2023-04-04T09:47:56;102542.75;;;12.82;46.40
15487;BME280;7845;53.698;10.078;2023-04-04T09:50:22;102541.22;;;13.02;46.44
15487;BME280;7845;53.698;10.078;2023-04-04T09:52:55;102546.28;;;12.86;46.81
15487;BME280;7845;53.698;10.078;2023-04-04T09:55:21;102537.66;;;11.19;43.69
15487;BME280;7845;53.698;10.078;2023-04-04T09:57:52;102543.59;;;10.65;44.16
15487;BME280;7845;53.698;10.078;2023-04-04T10:00:19;102541.22;;;11.72;44.79
15487;BME280;7845;53.698;10.078;2023-04-04T10:02:48;102548.28;;;12.36;46.51
15487;BME280;7845;53.698;10.078;2023-04-04T10:05:16;102542.63;;;12.71;47.68
15487;BME280;7845;53.698;10.078;2023-04-04T10:07:42;102532.38;;;11.16;44.07
15487;BME280;7845;53.698;10.078;2023-04-04T10:10:08;102533.13;;;11.59;44.43
15487;BME280;7845;53.698;10.078;2023-04-04T10:12:36;102523.09;;;11.33;42.63
15487;BME280;7845;53.698;10.078;2023-04-04T10:15:02;102539.81;;;10.94;44.34
15487;BME280;7845;53.698;10.078;2023-04-04T10:17:39;102544.44;;;11.09;44.85
15487;BME280;7845;53.698;10.078;2023-04-04T10:20:06;102552.69;;;11.30;46.40
15487;BME280;7845;53.698;10.078;2023-04-04T10:22:34;102543.78;;;11.19;43.15
15487;BME280;7845;53.698;10.078;2023-04-04T10:25:02;102517.81;;;11.30;41.32
15487;BME280;7845;53.698;10.078;2023-04-04T10:27:29;102529.22;;;11.33;43.08
15487;BME280;7845;53.698;10.078;2023-04-04T10:29:56;102517.34;;;12.07;41.94
15487;BME280;7845;53.698;10.078;2023-04-04T10:32:26;102510.13;;;11.91;41.34
15487;BME280;7845;53.698;10.078;2023-04-04T10:35:02;102502.69;;;11.10;39.82
15487;BME280;7845;53.698;10.078;2023-04-04T10:37:34;102487.25;;;11.78;38.95
15487;BME280;7845;53.698;10.078;2023-04-04T10:40:22;102501.06;;;11.19;40.01
15487;BME280;7845;53.698;10.078;2023-04-04T10:42:49;102508.66;;;11.54;40.77
15487;BME280;7845;53.698;10.078;2023-04-04T10:45:16;102516.50;;;11.56;42.48
15487;BME280;7845;53.698;10.078;2023-04-04T10:47:42;102522.09;;;11.77;43.10
15487;BME280;7845;53.698;10.078;2023-04-04T10:50:08;102503.88;;;11.83;41.26
15487;BME280;7845;53.698;10.078;2023-04-04T10:52:42;102475.91;;;11.25;38.89
15487;BME280;7845;53.698;10.078;2023-04-04T10:55:11;102477.53;;;11.71;39.04
15487;BME280;7845;53.698;10.078;2023-04-04T10:57:41;102491.00;;;11.95;40.40
15487;BME280;7845;53.698;10.078;2023-04-04T11:05:36;102489.56;;;11.60;40.98
15487;BME280;7845;53.698;10.078;2023-04-04T11:08:07;102462.13;;;12.57;39.73
15487;BME280;7845;53.698;10.078;2023-04-04T11:10:42;102456.75;;;11.80;37.60
15487;BME280;7845;53.698;10.078;2023-04-04T11:18:09;102463.03;;;13.52;40.18
15487;BME280;7845;53.698;10.078;2023-04-04T11:20:41;102434.34;;;13.81;36.56
15487;BME280;7845;53.698;10.078;2023-04-04T11:23:17;102414.13;;;13.60;35.76
15487;BME280;7845;53.698;10.078;2023-04-04T11:25:54;102409.84;;;13.80;34.31
15487;BME280;7845;53.698;10.078;2023-04-04T11:28:27;102428.53;;;14.33;35.76
15487;BME280;7845;53.698;10.078;2023-04-04T11:34:06;102404.72;;;14.02;33.83
15487;BME280;7845;53.698;10.078;2023-04-04T11:42:21;102420.94;;;13.36;36.72
15487;BME280;7845;53.698;10.078;2023-04-04T11:47:22;102394.16;;;13.88;34.61
15487;BME280;7845;53.698;10.078;2023-04-04T11:49:49;102388.28;;;14.48;35.73
15487;BME280;7845;53.698;10.078;2023-04-04T11:52:16;102410.84;;;14.07;36.35
15487;BME280;7845;53.698;10.078;2023-04-04T11:54:44;102418.09;;;14.76;37.23
15487;BME280;7845;53.698;10.078;2023-04-04T11:57:10;102414.63;;;15.22;37.52
15487;BME280;7845;53.698;10.078;2023-04-04T11:59:44;102393.56;;;15.18;35.23
15487;BME280;7845;53.698;10.078;2023-04-04T12:02:11;102403.19;;;15.35;36.54
15487;BME280;7845;53.698;10.078;2023-04-04T12:04:38;102390.06;;;15.34;34.99
15487;BME280;7845;53.698;10.078;2023-04-04T12:07:06;102400.66;;;13.15;35.19
15487;BME280;7845;53.698;10.078;2023-04-04T12:09:35;102403.72;;;13.78;35.15
15487;BME280;7845;53.698;10.078;2023-04-04T12:12:01;102416.91;;;12.74;36.31
15487;BME280;7845;53.698;10.078;2023-04-04T12:14:27;102416.06;;;13.92;37.18
15487;BME280;7845;53.698;10.078;2023-04-04T12:16:55;102417.97;;;14.27;37.32
15487;BME280;7845;53.698;10.078;2023-04-04T12:19:23;102413.53;;;14.22;36.32
15487;BME280;7845;53.698;10.078;2023-04-04T12:21:50;102400.59;;;14.78;35.52
15487;BME280;7845;53.698;10.078;2023-04-04T12:24:16;102386.53;;;14.56;34.51
15487;BME280;7845;53.698;10.078;2023-04-04T12:26:45;102383.88;;;14.49;34.64
15487;BME280;7845;53.698;10.078;2023-04-04T12:29:12;102387.94;;;13.72;34.08
15487;BME280;7845;53.698;10.078;2023-04-04T12:31:41;102399.25;;;13.65;36.72
15487;BME280;7845;53.698;10.078;2023-04-04T12:34:27;102411.09;;;13.09;36.32
15487;BME280;7845;53.698;10.078;2023-04-04T12:36:54;102406.72;;;14.80;38.01
15487;BME280;7845;53.698;10.078;2023-04-04T12:39:22;102380.41;;;14.78;33.78
15487;BME280;7845;53.698;10.078;2023-04-04T12:42:01;102379.94;;;13.51;35.21
15487;BME280;7845;53.698;10.078;2023-04-04T12:44:33;102382.81;;;14.01;35.39
15487;BME280;7845;53.698;10.078;2023-04-04T12:47:01;102369.38;;;13.38;34.46
15487;BME280;7845;53.698;10.078;2023-04-04T12:49:33;102373.34;;;14.35;36.26
15487;BME280;7845;53.698;10.078;2023-04-04T12:51:58;102361.97;;;15.27;35.52
15487;BME280;7845;53.698;10.078;2023-04-04T12:54:30;102351.50;;;14.95;34.37
15487;BME280;7845;53.698;10.078;2023-04-04T12:56:57;102349.66;;;14.24;33.60
15487;BME280;7845;53.698;10.078;2023-04-04T12:59:29;102349.50;;;13.79;33.59
15487;BME280;7845;53.698;10.078;2023-04-04T13:01:56;102348.88;;;14.63;33.28
15487;BME280;7845;53.698;10.078;2023-04-04T13:04:24;102348.88;;;14.83;33.81
15487;BME280;7845;53.698;10.078;2023-04-04T13:06:50;102341.84;;;14.94;33.96
15487;BME280;7845;53.698;10.078;2023-04-04T13:09:19;102350.44;;;13.98;35.02
15487;BME280;7845;53.698;10.078;2023-04-04T13:11:57;102360.22;;;14.58;36.12
15487;BME280;7845;53.698;10.078;2023-04-04T13:14:27;102338.34;;;14.83;34.43